createdAt,value
2023-04-13T00:05:18.613Z,11.02
2023-04-13T00:11:20.532Z,10.13
2023-04-13T00:17:22.753Z,6.22
2023-04-13T00:23:24.577Z,5.28
2023-04-13T00:29:26.410Z,5.57
2023-04-13T00:35:28.143Z,9.85
2023-04-13T00:41:30.099Z,8.98
2023-04-13T00:47:36.854Z,9.35
2023-04-13T00:53:38.873Z,8.40
2023-04-13T00:59:40.721Z,5.80
2023-04-13T01:06:07.744Z,3.60
2023-04-13T01:12:19.083Z,4.72
2023-04-13T01:18:23.544Z,3.17
2023-04-13T01:24:53.589Z,5.95
2023-04-13T01:30:57.711Z,3.28
2023-04-13T01:37:04.929Z,3.63
2023-04-13T01:43:07.597Z,2.67
2023-04-13T01:49:11.076Z,4.55
2023-04-13T01:55:14.127Z,4.13
2023-04-13T02:01:16.277Z,1.83
2023-04-13T02:07:18.935Z,5.93
2023-04-13T02:13:21.087Z,1.45
2023-04-13T02:19:23.962Z,4.22
2023-04-13T02:25:28.048Z,4.05
2023-04-13T02:31:32.011Z,1.90
2023-04-13T02:37:34.117Z,2.72
2023-04-13T02:43:35.917Z,4.15
2023-04-13T02:49:37.715Z,5.03
2023-04-13T02:55:39.961Z,3.72
2023-04-13T03:01:42.334Z,3.08
2023-04-13T03:07:45.421Z,2.67
2023-04-13T03:13:47.218Z,2.92
2023-04-13T03:19:49.853Z,3.63
2023-04-13T03:25:51.627Z,4.70
2023-04-13T03:31:53.436Z,3.58
2023-04-13T03:37:56.164Z,4.05
2023-04-13T03:43:58.560Z,4.60
2023-04-13T03:50:00.791Z,2.38
2023-04-13T03:56:02.678Z,4.13
2023-04-13T04:02:04.823Z,3.58
2023-04-13T04:08:06.816Z,3.15
2023-04-13T04:14:08.644Z,4.05
2023-04-13T04:20:10.914Z,1.98
2023-04-13T04:26:14.020Z,3.10
2023-04-13T04:32:18.639Z,5.63
2023-04-13T04:44:25.409Z,3.38
2023-04-13T04:50:27.718Z,4.25
2023-04-13T04:56:29.796Z,8.05
2023-04-13T05:02:32.060Z,3.35
2023-04-13T05:08:34.602Z,2.30
2023-04-13T05:14:37.120Z,1.67
2023-04-13T05:20:39.180Z,3.13
2023-04-13T05:26:42.475Z,2.22
2023-04-13T05:32:44.803Z,1.83
2023-04-13T05:38:46.742Z,3.17
2023-04-13T05:44:48.562Z,3.03
2023-04-13T05:50:50.413Z,2.17
2023-04-13T05:56:52.191Z,1.73
2023-04-13T06:02:54.839Z,2.38
2023-04-13T06:08:57.262Z,3.45
2023-04-13T06:14:59.291Z,1.67
2023-04-13T06:21:01.203Z,1.15
2023-04-13T06:27:04.556Z,2.08
2023-04-13T06:33:08.938Z,1.50
2023-04-13T06:39:11.700Z,0.98
2023-04-13T06:45:13.859Z,2.55
2023-04-13T06:51:18.923Z,2.75
2023-04-13T06:57:20.864Z,2.35
2023-04-13T07:03:22.892Z,1.30
2023-04-13T07:09:24.813Z,2.13
2023-04-13T07:15:26.927Z,1.30
2023-04-13T07:21:28.936Z,2.17
2023-04-13T07:27:30.774Z,2.05
2023-04-13T07:33:32.661Z,3.15
2023-04-13T07:39:35.339Z,3.08
2023-04-13T07:45:37.765Z,4.30
2023-04-13T07:51:43.748Z,2.58
2023-04-13T07:57:46.186Z,2.35
2023-04-13T08:03:48.257Z,2.58
2023-04-13T08:09:52.514Z,2.28
2023-04-13T08:15:57.284Z,3.83
2023-04-13T08:21:59.798Z,9.80
2023-04-13T08:28:01.592Z,6.15
2023-04-13T08:34:04.720Z,4.28
2023-04-13T08:40:07.967Z,3.60
2023-04-13T08:46:09.874Z,3.90
2023-04-13T08:52:14.429Z,3.88
2023-04-13T08:58:25.227Z,4.75
2023-04-13T09:04:30.556Z,3.35
2023-04-13T09:10:34.188Z,4.40
2023-04-13T09:16:41.233Z,2.73
2023-04-13T09:22:43.716Z,4.43
2023-04-13T09:28:51.894Z,5.30
2023-04-13T09:34:59.716Z,2.85
2023-04-13T09:41:01.946Z,3.83
2023-04-13T09:47:04.796Z,3.53
2023-04-13T09:53:09.374Z,1.50
2023-04-13T09:59:12.741Z,0.98
2023-04-13T10:05:17.175Z,2.17
2023-04-13T10:17:35.212Z,3.05
2023-04-13T10:23:40.437Z,2.47
2023-04-13T10:29:42.500Z,3.17
2023-04-13T10:35:57.444Z,2.85
2023-04-13T10:42:03.570Z,3.10
2023-04-13T10:48:08.826Z,1.40
2023-04-13T10:54:12.799Z,3.28
2023-04-13T11:00:27.332Z,3.63
2023-04-13T11:06:40.290Z,2.47
2023-04-13T11:12:52.875Z,3.65
2023-04-13T11:19:05.501Z,3.58
2023-04-13T11:25:10.021Z,3.38
2023-04-13T11:31:12.819Z,2.67
2023-04-13T11:37:15.212Z,5.40
2023-04-13T11:43:17.647Z,3.80
2023-04-13T11:49:22.198Z,3.42
2023-04-13T11:55:25.275Z,3.97
2023-04-13T12:01:32.379Z,3.60
2023-04-13T12:07:40.990Z,6.47
2023-04-13T12:14:06.499Z,5.43
2023-04-13T12:20:16.287Z,3.65
2023-04-13T12:26:59.416Z,4.28
2023-04-13T12:32:48.511Z,5.78
2023-04-13T12:38:50.409Z,3.22
2023-04-13T12:44:52.405Z,4.93
2023-04-13T12:50:55.939Z,4.80
2023-04-13T12:56:57.931Z,3.67
2023-04-13T13:03:12.710Z,5.15
2023-04-13T13:09:15.456Z,6.15
2023-04-13T13:15:18.044Z,4.10
2023-04-13T13:21:23.228Z,5.05
2023-04-13T13:33:33.162Z,4.20
2023-04-13T13:39:35.874Z,7.28
2023-04-13T13:45:37.970Z,3.33
2023-04-13T13:51:39.858Z,6.05
2023-04-13T13:57:41.748Z,4.82
2023-04-13T14:03:45.052Z,7.28
2023-04-13T14:09:50.512Z,5.60
2023-04-13T14:15:52.891Z,8.20
2023-04-13T14:21:57.001Z,4.82
2023-04-13T14:27:59.459Z,6.70
2023-04-13T14:34:01.316Z,5.03
2023-04-13T14:40:11.934Z,4.78
2023-04-13T14:46:15.687Z,5.07
2023-04-13T14:52:19.294Z,5.25
2023-04-13T14:58:21.618Z,5.03
2023-04-13T15:04:23.990Z,5.10
2023-04-13T15:10:28.373Z,10.18
2023-04-13T15:16:30.571Z,4.38
2023-04-13T15:22:35.882Z,5.65
2023-04-13T15:28:38.008Z,3.75
2023-04-13T15:34:40.729Z,4.10
2023-04-13T15:40:44.086Z,5.03
2023-04-13T15:46:48.202Z,5.10
2023-04-13T15:52:49.975Z,5.82
2023-04-13T15:58:51.969Z,5.32
2023-04-13T16:04:54.279Z,6.63
2023-04-13T16:10:56.427Z,4.20
2023-04-13T16:17:00.284Z,6.70
2023-04-13T16:23:05.032Z,4.72
2023-04-13T16:29:08.130Z,4.82
2023-04-13T16:35:11.118Z,6.25
2023-04-13T16:41:13.332Z,4.78
2023-04-13T16:47:15.697Z,4.80
2023-04-13T16:53:18.686Z,5.80
2023-04-13T16:59:21.375Z,6.68
2023-04-13T17:05:28.276Z,5.13
2023-04-13T17:11:30.486Z,7.78
2023-04-13T17:17:32.302Z,6.53
2023-04-13T17:23:34.645Z,5.60
2023-04-13T17:29:38.251Z,6.47
2023-04-13T17:35:40.445Z,5.93
2023-04-13T17:41:42.630Z,6.80
2023-04-13T17:47:44.740Z,9.02
2023-04-13T17:53:46.950Z,6.88
2023-04-13T17:59:48.952Z,8.85
2023-04-13T18:05:51.065Z,10.93
2023-04-13T18:11:52.863Z,8.32
2023-04-13T18:17:54.793Z,7.40
2023-04-13T18:23:57.058Z,7.15
2023-04-13T18:29:59.277Z,5.68
2023-04-13T18:36:01.471Z,11.07
2023-04-13T18:42:03.708Z,5.88
2023-04-13T18:48:06.565Z,7.65
2023-04-13T18:54:08.626Z,9.45
2023-04-13T19:00:11.497Z,7.10
2023-04-13T19:06:13.589Z,7.65
2023-04-13T19:12:15.681Z,10.70
2023-04-13T19:18:18.265Z,8.30
2023-04-13T19:24:21.558Z,3.80
2023-04-13T19:30:23.388Z,10.55
2023-04-13T19:36:25.922Z,10.10
2023-04-13T19:42:28.682Z,7.35
2023-04-13T19:48:31.060Z,7.35
2023-04-13T19:54:33.306Z,7.55
2023-04-13T20:00:36.430Z,9.13
2023-04-13T20:06:39.188Z,9.60
2023-04-13T20:12:41.092Z,9.75
2023-04-13T20:18:44.111Z,11.95
2023-04-13T20:24:45.966Z,5.68
2023-04-13T20:30:47.779Z,8.00
2023-04-13T20:36:49.769Z,11.23
2023-04-13T20:42:52.068Z,7.85
2023-04-13T20:48:53.932Z,6.82
2023-04-13T20:54:56.419Z,8.45
2023-04-13T21:00:58.763Z,9.68
2023-04-13T21:07:02.440Z,9.23
2023-04-13T21:13:06.829Z,8.13
2023-04-13T21:19:08.634Z,9.43
2023-04-13T21:25:11.004Z,7.18
2023-04-13T21:31:12.923Z,7.35
2023-04-13T21:37:15.017Z,7.82
2023-04-13T21:43:17.069Z,5.57
2023-04-13T21:49:18.950Z,4.82
2023-04-13T21:55:21.090Z,8.65
2023-04-13T22:01:24.036Z,6.40
2023-04-13T22:07:39.074Z,6.10
2023-04-13T22:13:44.078Z,6.03
2023-04-13T22:19:46.238Z,8.63
2023-04-13T22:25:59.102Z,6.45
2023-04-13T22:32:01.310Z,7.57
2023-04-13T22:38:03.797Z,5.72
2023-04-13T22:44:07.296Z,7.18
2023-04-13T22:50:10.290Z,5.35
2023-04-13T22:56:13.234Z,10.75
2023-04-13T23:02:15.191Z,5.50
2023-04-13T23:08:17.232Z,4.50
2023-04-13T23:14:20.878Z,5.22
2023-04-13T23:20:24.541Z,9.27
2023-04-13T23:26:27.238Z,7.30
2023-04-13T23:32:29.139Z,9.23
2023-04-13T23:38:32.227Z,6.82
2023-04-13T23:44:34.410Z,7.22
2023-04-13T23:50:36.254Z,6.22
2023-04-13T23:56:38.685Z,7.75
